Terminal Aerodrome Forecast
Issued by NWS

Home | Current Version | Previous Version | Text Only | Print | Product List | Glossary On
Versions: 1 2 3 4 5 6 7 8 9 10 11 12 13 14
000
FTUS44 KBMX 031100
TAFTCL
TAF
KTCL 031129Z 0312/0412 05003KT 1/4SM FG OVC002
     FM031500 16004KT 4SM -SHRA BR OVC007
     FM040000 18005KT P6SM OVC003=

USA.gov is the U.S. government's official web portal to all federal, state and local government web resources and services.